createdAt,value
2019-02-26T00:01:21.061Z,4.00
2019-02-26T00:03:52.049Z,6.40
2019-02-26T00:06:24.838Z,3.80
2019-02-26T00:08:56.613Z,5.20
2019-02-26T00:11:28.233Z,4.00
2019-02-26T00:13:59.017Z,6.40
2019-02-26T00:16:29.333Z,6.00
2019-02-26T00:19:02.660Z,4.80
2019-02-26T00:21:31.104Z,4.00
2019-02-26T00:24:01.749Z,4.80
2019-02-26T00:26:31.614Z,3.60
2019-02-26T00:29:01.837Z,7.00
2019-02-26T00:31:32.823Z,3.00
2019-02-26T00:34:02.669Z,4.00
2019-02-26T00:36:33.739Z,3.00
2019-02-26T00:39:05.164Z,6.00
2019-02-26T00:41:35.974Z,3.00
2019-02-26T00:44:06.608Z,4.40
2019-02-26T00:46:37.593Z,4.00
2019-02-26T00:49:08.257Z,6.60
2019-02-26T00:51:39.802Z,4.00
2019-02-26T00:54:12.233Z,4.40
2019-02-26T00:56:41.912Z,6.00
2019-02-26T00:59:11.567Z,6.00
2019-02-26T01:01:44.070Z,4.00
2019-02-26T01:04:14.373Z,5.60
2019-02-26T01:06:44.207Z,3.00
2019-02-26T01:09:15.461Z,8.20
2019-02-26T01:11:47.539Z,6.20
2019-02-26T01:14:18.591Z,3.80
2019-02-26T01:16:48.382Z,6.00
2019-02-26T01:19:19.731Z,3.80
2019-02-26T01:21:49.621Z,4.40
2019-02-26T01:24:21.392Z,3.00
2019-02-26T01:26:50.964Z,3.20
2019-02-26T01:29:22.940Z,4.00
2019-02-26T01:31:52.224Z,6.00
2019-02-26T01:34:21.838Z,3.80
2019-02-26T01:36:51.673Z,4.40
2019-02-26T01:39:24.480Z,6.60
2019-02-26T01:41:56.213Z,6.00
2019-02-26T01:44:30.143Z,4.80
2019-02-26T01:47:00.042Z,4.40
2019-02-26T01:49:29.602Z,3.40
2019-02-26T01:51:59.307Z,4.00
2019-02-26T01:54:30.621Z,4.00
2019-02-26T01:57:00.507Z,4.00
2019-02-26T01:59:33.586Z,3.00
2019-02-26T02:02:01.986Z,4.00
2019-02-26T02:04:34.097Z,4.00
2019-02-26T02:07:05.936Z,3.80
2019-02-26T02:09:35.197Z,6.00
2019-02-26T02:12:07.099Z,5.60
2019-02-26T02:14:36.930Z,6.00
2019-02-26T02:17:08.486Z,3.60
2019-02-26T02:19:39.077Z,4.00
2019-02-26T02:22:10.057Z,6.60
2019-02-26T02:24:41.829Z,7.00
2019-02-26T02:27:12.613Z,5.20
2019-02-26T02:29:45.729Z,5.60
2019-02-26T02:32:15.193Z,4.00
2019-02-26T02:34:44.850Z,6.40
2019-02-26T02:37:15.344Z,4.80
2019-02-26T02:39:48.828Z,5.20
2019-02-26T02:42:19.677Z,6.20
2019-02-26T02:44:53.377Z,7.00
2019-02-26T02:47:25.330Z,6.60
2019-02-26T02:49:54.986Z,5.60
2019-02-26T02:52:27.182Z,5.60
2019-02-26T02:54:56.091Z,6.80
2019-02-26T02:57:26.949Z,3.40
2019-02-26T02:59:59.825Z,6.00
2019-02-26T03:02:29.893Z,6.20
2019-02-26T03:04:59.674Z,5.60
2019-02-26T03:07:29.611Z,5.40
2019-02-26T03:10:03.936Z,4.00
2019-02-26T03:12:35.273Z,5.60
2019-02-26T03:15:07.474Z,6.40
2019-02-26T03:17:36.880Z,6.20
2019-02-26T03:20:08.213Z,4.00
2019-02-26T03:22:41.979Z,6.00
2019-02-26T03:25:14.883Z,4.00
2019-02-26T03:27:44.533Z,4.80
2019-02-26T03:30:26.325Z,7.00
2019-02-26T03:32:56.010Z,5.60
2019-02-26T03:35:23.101Z,5.60
2019-02-26T03:37:54.535Z,4.00
2019-02-26T03:40:24.885Z,6.80
2019-02-26T03:42:56.065Z,5.20
2019-02-26T03:45:25.857Z,4.00
2019-02-26T03:47:58.075Z,4.40
2019-02-26T03:50:27.260Z,5.20
2019-02-26T03:52:56.872Z,5.60
2019-02-26T03:55:27.152Z,4.40
2019-02-26T03:57:59.069Z,7.80
2019-02-26T04:00:28.328Z,4.80
2019-02-26T04:02:58.282Z,7.00
2019-02-26T04:05:28.013Z,5.20
2019-02-26T04:07:59.635Z,9.00
2019-02-26T04:10:29.281Z,6.00
2019-02-26T04:12:59.018Z,9.00
2019-02-26T04:15:31.030Z,7.00
2019-02-26T04:18:00.142Z,7.00
2019-02-26T04:20:30.272Z,7.80
2019-02-26T04:23:00.835Z,8.60
2019-02-26T04:25:51.492Z,6.00
2019-02-26T04:28:32.986Z,8.20
2019-02-26T04:31:41.524Z,7.40
2019-02-26T04:34:26.160Z,4.20
2019-02-26T04:37:10.324Z,6.00
2019-02-26T04:40:07.764Z,7.60
2019-02-26T04:43:38.900Z,6.00
2019-02-26T04:46:34.335Z,3.60
2019-02-26T04:49:05.106Z,6.00
2019-02-26T04:51:36.346Z,9.00
2019-02-26T04:54:06.773Z,5.80
2019-02-26T04:56:39.575Z,5.40
2019-02-26T04:59:09.796Z,5.60
2019-02-26T05:01:39.386Z,4.00
2019-02-26T05:04:09.127Z,4.80
2019-02-26T05:06:39.056Z,4.40
2019-02-26T05:09:10.630Z,3.00
2019-02-26T05:11:40.854Z,4.00
2019-02-26T05:14:11.708Z,0.60
2019-02-26T05:16:41.944Z,6.40
2019-02-26T05:19:13.579Z,6.60
2019-02-26T05:21:43.279Z,7.00
2019-02-26T05:24:14.987Z,6.20
2019-02-26T05:26:45.012Z,6.20
2019-02-26T05:29:15.247Z,4.00
2019-02-26T05:31:44.897Z,4.00
2019-02-26T05:34:17.729Z,6.00
2019-02-26T05:36:46.456Z,6.00
2019-02-26T05:39:21.121Z,3.00
2019-02-26T05:41:54.544Z,3.80
2019-02-26T05:44:22.573Z,6.60
2019-02-26T05:46:54.051Z,4.00
2019-02-26T05:49:23.621Z,4.00
2019-02-26T05:51:54.101Z,6.40
2019-02-26T05:54:24.624Z,6.60
2019-02-26T05:56:57.424Z,4.40
2019-02-26T05:59:27.058Z,5.60
2019-02-26T06:01:58.437Z,5.60
2019-02-26T06:04:34.578Z,3.60
2019-02-26T06:07:04.726Z,7.80
2019-02-26T06:09:35.000Z,7.40
2019-02-26T06:12:04.861Z,3.00
2019-02-26T06:14:36.357Z,6.00
2019-02-26T06:17:07.267Z,5.80
2019-02-26T06:19:44.980Z,6.00
2019-02-26T06:22:17.548Z,6.00
2019-02-26T06:24:46.001Z,7.00
2019-02-26T06:27:18.328Z,6.40
2019-02-26T06:29:46.969Z,7.00
2019-02-26T06:32:16.679Z,7.00
2019-02-26T06:34:46.129Z,7.40
2019-02-26T06:37:20.469Z,8.80
2019-02-26T06:39:52.607Z,9.80
2019-02-26T06:42:21.289Z,8.60
2019-02-26T06:44:51.427Z,11.20
2019-02-26T06:47:23.398Z,9.00
2019-02-26T06:49:52.734Z,8.20
2019-02-26T06:52:23.957Z,9.60
2019-02-26T06:54:57.283Z,9.00
2019-02-26T06:57:24.796Z,7.00
2019-02-26T06:59:56.371Z,6.60
2019-02-26T07:02:28.361Z,9.80
2019-02-26T07:04:57.128Z,9.40
2019-02-26T07:07:27.086Z,8.40
2019-02-26T07:12:22.190Z,11.20
2019-02-26T07:14:53.546Z,10.00
2019-02-26T07:17:23.371Z,9.00
2019-02-26T07:19:55.451Z,11.00
2019-02-26T07:22:24.194Z,9.80
2019-02-26T07:24:53.953Z,9.40
2019-02-26T07:27:26.502Z,7.80
2019-02-26T07:29:58.501Z,10.00
2019-02-26T07:32:28.385Z,8.40
2019-02-26T07:34:58.186Z,11.40
2019-02-26T07:37:28.712Z,16.20
2019-02-26T07:39:59.179Z,12.40
2019-02-26T07:42:32.759Z,13.00
2019-02-26T07:45:02.004Z,10.00
2019-02-26T07:47:33.782Z,11.40
2019-02-26T07:50:04.675Z,11.60
2019-02-26T07:52:36.629Z,13.00
2019-02-26T07:55:09.150Z,12.00
2019-02-26T07:57:40.338Z,15.40
2019-02-26T08:00:11.311Z,13.00
2019-02-26T08:02:40.759Z,12.60
2019-02-26T08:05:10.906Z,15.60
2019-02-26T08:07:40.752Z,16.00
2019-02-26T08:10:14.619Z,18.20
2019-02-26T08:12:45.383Z,16.80
2019-02-26T08:15:16.325Z,17.00
2019-02-26T08:17:53.253Z,20.60
2019-02-26T08:20:20.044Z,16.60
2019-02-26T08:22:51.607Z,16.80
2019-02-26T08:25:21.445Z,17.20
2019-02-26T08:27:52.141Z,16.20
2019-02-26T08:30:24.194Z,14.60
2019-02-26T08:32:59.778Z,10.40
2019-02-26T08:35:32.952Z,16.60
2019-02-26T08:38:05.658Z,42.00
2019-02-26T08:40:33.941Z,23.20
2019-02-26T08:43:03.421Z,12.80
2019-02-26T08:45:33.140Z,9.80
2019-02-26T08:48:02.802Z,12.00
2019-02-26T08:50:33.961Z,12.00
2019-02-26T08:53:04.258Z,11.60
2019-02-26T08:55:34.145Z,9.40
2019-02-26T08:58:12.541Z,7.00
2019-02-26T09:00:42.066Z,10.00
2019-02-26T09:03:13.375Z,9.00
2019-02-26T09:05:43.145Z,9.00
2019-02-26T09:08:15.397Z,11.60
2019-02-26T09:10:46.943Z,8.40
2019-02-26T09:13:18.700Z,9.60
2019-02-26T09:15:48.319Z,7.00
2019-02-26T09:18:20.234Z,11.20
2019-02-26T09:20:49.408Z,8.60
2019-02-26T09:23:21.200Z,7.00
2019-02-26T09:25:54.149Z,7.00
2019-02-26T09:28:22.323Z,12.40
2019-02-26T09:30:53.740Z,8.20
2019-02-26T09:33:27.553Z,8.60
2019-02-26T09:35:56.753Z,6.80
2019-02-26T09:38:26.730Z,7.00
2019-02-26T09:40:57.117Z,7.40
2019-02-26T09:43:28.698Z,7.40
2019-02-26T09:45:58.220Z,7.00
2019-02-26T09:48:28.088Z,18.80
2019-02-26T09:51:00.434Z,5.20
2019-02-26T09:53:30.229Z,6.00
2019-02-26T09:56:00.293Z,9.00
2019-02-26T09:58:30.092Z,5.20
2019-02-26T10:00:59.583Z,6.00
2019-02-26T10:03:32.056Z,9.00
2019-02-26T10:06:00.839Z,6.00
2019-02-26T10:08:30.713Z,10.00
2019-02-26T10:11:02.249Z,9.40
2019-02-26T10:13:31.464Z,9.40
2019-02-26T10:16:03.821Z,10.40
2019-02-26T10:18:33.084Z,10.00
2019-02-26T10:21:08.559Z,12.20
2019-02-26T10:23:37.642Z,7.80
2019-02-26T10:26:08.412Z,12.00
2019-02-26T10:28:42.054Z,11.20
2019-02-26T10:31:10.393Z,8.60
2019-02-26T10:33:41.141Z,7.40
2019-02-26T10:36:13.459Z,8.60
2019-02-26T10:38:42.311Z,9.40
2019-02-26T10:41:11.981Z,10.40
2019-02-26T10:43:47.701Z,8.80
2019-02-26T10:46:17.933Z,10.40
2019-02-26T10:48:48.560Z,6.00
2019-02-26T10:51:26.006Z,6.80
2019-02-26T10:53:50.950Z,7.60
2019-02-26T10:56:20.420Z,7.60
2019-02-26T10:58:57.310Z,9.80
2019-02-26T11:01:27.578Z,10.00
2019-02-26T11:03:55.589Z,7.40
2019-02-26T11:06:33.159Z,9.00
2019-02-26T11:09:02.796Z,12.00
2019-02-26T11:11:32.905Z,9.60
2019-02-26T11:14:05.269Z,7.00
2019-02-26T11:16:35.842Z,9.20
2019-02-26T11:19:07.597Z,7.80
2019-02-26T11:21:38.017Z,9.00
2019-02-26T11:24:11.275Z,9.40
2019-02-26T11:26:41.423Z,9.00
2019-02-26T11:29:12.192Z,10.00
2019-02-26T11:34:13.850Z,13.00
2019-02-26T11:36:43.396Z,10.80
2019-02-26T11:39:12.953Z,11.60
2019-02-26T11:41:42.457Z,13.40
2019-02-26T11:44:15.103Z,8.20
2019-02-26T11:46:46.177Z,9.80
2019-02-26T11:49:21.825Z,7.00
2019-02-26T11:51:53.708Z,11.20
2019-02-26T11:54:22.959Z,9.00
2019-02-26T11:56:54.726Z,12.20
2019-02-26T11:59:24.755Z,12.00
2019-02-26T12:01:56.384Z,8.60
2019-02-26T12:04:25.624Z,4.00
2019-02-26T12:06:55.900Z,9.20
2019-02-26T12:09:29.240Z,9.00
2019-02-26T12:11:58.981Z,11.20
2019-02-26T12:14:29.518Z,7.00
2019-02-26T12:16:59.428Z,6.00
2019-02-26T12:19:31.196Z,6.40
2019-02-26T12:22:09.092Z,7.40
2019-02-26T12:24:39.327Z,4.00
2019-02-26T12:27:09.746Z,5.20
2019-02-26T12:29:40.699Z,6.60
2019-02-26T12:32:11.972Z,5.60
2019-02-26T12:34:44.670Z,9.00
2019-02-26T12:37:14.341Z,3.00
2019-02-26T12:39:46.971Z,6.40
2019-02-26T12:42:18.722Z,6.00
2019-02-26T12:44:49.117Z,3.00
2019-02-26T12:47:22.792Z,8.20
2019-02-26T12:49:52.850Z,6.00
2019-02-26T12:52:26.493Z,5.20
2019-02-26T12:54:54.949Z,6.00
2019-02-26T12:57:27.024Z,6.80
2019-02-26T12:59:56.996Z,6.00
2019-02-26T13:02:26.757Z,5.60
2019-02-26T13:04:56.256Z,5.20
2019-02-26T13:07:26.303Z,3.00
2019-02-26T13:10:02.762Z,3.80
2019-02-26T13:12:32.185Z,3.40
2019-02-26T13:15:05.331Z,4.00
2019-02-26T13:17:32.498Z,4.00
2019-02-26T13:20:05.822Z,3.60
2019-02-26T13:22:33.957Z,4.00
2019-02-26T13:25:08.261Z,1.00
2019-02-26T13:27:35.952Z,3.00
2019-02-26T13:30:07.589Z,3.00
2019-02-26T13:32:55.129Z,4.40
2019-02-26T13:35:09.952Z,3.20
2019-02-26T13:37:42.109Z,2.00
2019-02-26T13:40:14.111Z,3.80
2019-02-26T13:42:49.924Z,2.40
2019-02-26T13:45:20.340Z,3.00
2019-02-26T13:47:49.933Z,1.60
2019-02-26T13:50:23.278Z,3.00
2019-02-26T13:52:53.514Z,1.60
2019-02-26T13:55:23.528Z,3.00
2019-02-26T13:57:53.028Z,3.00
2019-02-26T14:00:26.358Z,1.00
2019-02-26T14:02:53.887Z,1.20
2019-02-26T14:05:23.694Z,0.80
2019-02-26T14:07:56.370Z,2.60
2019-02-26T14:10:27.131Z,2.40
2019-02-26T14:12:57.069Z,3.00
2019-02-26T14:15:27.696Z,4.00
2019-02-26T14:18:00.958Z,3.00
2019-02-26T14:20:33.140Z,3.40
2019-02-26T14:23:03.785Z,3.40
2019-02-26T14:25:36.084Z,1.20
2019-02-26T14:28:07.143Z,2.80
2019-02-26T14:30:37.161Z,2.20
2019-02-26T14:33:11.109Z,3.60
2019-02-26T14:35:45.598Z,1.40
2019-02-26T14:38:19.265Z,3.00
2019-02-26T14:40:51.904Z,2.00
2019-02-26T14:43:23.083Z,3.00
2019-02-26T14:45:53.419Z,3.00
2019-02-26T14:48:23.773Z,3.00
2019-02-26T14:50:55.049Z,3.00
2019-02-26T14:53:25.133Z,3.80
2019-02-26T14:55:57.126Z,3.00
2019-02-26T14:58:26.756Z,0.60
2019-02-26T15:00:57.939Z,2.00
2019-02-26T15:03:27.757Z,3.60
2019-02-26T15:05:57.357Z,3.00
2019-02-26T15:08:27.218Z,0.00
2019-02-26T15:10:56.970Z,1.20
2019-02-26T15:13:29.393Z,1.00
2019-02-26T15:16:02.226Z,3.80
2019-02-26T15:18:32.157Z,2.80
2019-02-26T15:21:01.742Z,3.00
2019-02-26T15:23:31.394Z,1.00
2019-02-26T15:26:01.649Z,3.00
2019-02-26T15:28:31.223Z,1.00
2019-02-26T15:31:03.274Z,1.00
2019-02-26T15:33:34.343Z,3.00
2019-02-26T15:36:04.388Z,0.40
2019-02-26T15:38:34.547Z,4.00
2019-02-26T15:41:04.423Z,2.60
2019-02-26T15:43:34.153Z,3.00
2019-02-26T15:46:03.715Z,1.40
2019-02-26T15:48:36.038Z,3.40
2019-02-26T15:51:14.138Z,1.00
2019-02-26T15:53:39.142Z,2.60
2019-02-26T15:56:08.717Z,3.00
2019-02-26T15:58:38.398Z,2.60
2019-02-26T16:01:12.848Z,3.00
2019-02-26T16:03:42.413Z,1.00
2019-02-26T16:06:12.125Z,1.00
2019-02-26T16:08:43.367Z,3.00
2019-02-26T16:11:14.050Z,3.00
2019-02-26T16:13:43.845Z,1.40
2019-02-26T16:16:14.002Z,3.00
2019-02-26T16:18:43.520Z,3.00
2019-02-26T16:21:18.675Z,0.00
2019-02-26T16:23:47.473Z,3.20
2019-02-26T16:26:17.022Z,1.40
2019-02-26T16:28:46.715Z,3.00
2019-02-26T16:31:16.539Z,5.60
2019-02-26T16:33:46.701Z,3.00
2019-02-26T16:36:17.080Z,3.00
2019-02-26T16:38:50.722Z,4.00
2019-02-26T16:41:17.803Z,3.00
2019-02-26T16:43:51.618Z,3.00
2019-02-26T16:46:18.917Z,5.60
2019-02-26T16:48:48.535Z,6.40
2019-02-26T16:51:20.955Z,5.60
2019-02-26T16:53:49.748Z,6.00
2019-02-26T16:56:21.465Z,4.00
2019-02-26T16:58:54.104Z,5.20
2019-02-26T17:01:24.089Z,5.60
2019-02-26T17:03:54.323Z,4.00
2019-02-26T17:06:24.500Z,7.40
2019-02-26T17:08:56.054Z,11.20
2019-02-26T17:11:25.587Z,8.60
2019-02-26T17:13:55.062Z,7.00
2019-02-26T17:16:24.846Z,7.60
2019-02-26T17:18:54.839Z,8.20
2019-02-26T17:21:24.742Z,4.00
2019-02-26T17:23:54.322Z,5.20
2019-02-26T17:26:24.424Z,4.80
2019-02-26T17:28:54.172Z,7.00
2019-02-26T17:31:23.719Z,7.00
2019-02-26T17:33:55.110Z,9.20
2019-02-26T17:36:26.998Z,6.20
2019-02-26T17:38:57.318Z,8.80
2019-02-26T17:41:27.009Z,9.20
2019-02-26T17:43:59.617Z,12.60
2019-02-26T17:46:28.669Z,12.80
2019-02-26T17:49:02.669Z,14.20
2019-02-26T17:51:29.779Z,19.80
2019-02-26T17:53:59.319Z,15.80
2019-02-26T17:56:29.336Z,6.60
2019-02-26T17:59:01.130Z,15.40
2019-02-26T18:01:30.948Z,17.20
2019-02-26T18:04:00.614Z,10.40
2019-02-26T18:06:34.477Z,14.20
2019-02-26T18:09:04.473Z,13.80
2019-02-26T18:11:34.407Z,8.60
2019-02-26T18:14:03.900Z,13.80
2019-02-26T18:16:34.378Z,15.20
2019-02-26T18:19:12.093Z,13.40
2019-02-26T18:21:38.895Z,12.60
2019-02-26T18:24:09.468Z,12.80
2019-02-26T18:26:39.330Z,13.40
2019-02-26T18:29:13.034Z,14.00
2019-02-26T18:31:42.868Z,12.00
2019-02-26T18:34:13.998Z,15.00
2019-02-26T18:36:47.270Z,15.60
2019-02-26T18:39:17.028Z,11.20
2019-02-26T18:41:50.684Z,14.20
2019-02-26T18:44:20.520Z,13.80
2019-02-26T18:46:49.554Z,15.00
2019-02-26T18:49:21.458Z,12.20
2019-02-26T18:51:50.235Z,14.60
2019-02-26T18:54:21.116Z,19.00
2019-02-26T18:56:50.974Z,13.00
2019-02-26T18:59:21.579Z,16.00
2019-02-26T19:01:52.104Z,12.80
2019-02-26T19:04:26.762Z,19.60
2019-02-26T19:06:59.461Z,13.80
2019-02-26T19:09:29.493Z,15.00
2019-02-26T19:11:59.466Z,14.20
2019-02-26T19:14:29.786Z,15.00
2019-02-26T19:17:00.331Z,13.80
2019-02-26T19:19:30.156Z,14.00
2019-02-26T19:22:00.244Z,17.80
2019-02-26T19:24:29.820Z,15.60
2019-02-26T19:27:02.218Z,15.20
2019-02-26T19:29:32.101Z,15.40
2019-02-26T19:32:05.382Z,15.40
2019-02-26T19:34:35.763Z,17.60
2019-02-26T19:37:05.749Z,16.80
2019-02-26T19:39:35.675Z,15.40
2019-02-26T19:42:05.513Z,19.40
2019-02-26T19:44:35.984Z,19.00
2019-02-26T19:47:06.004Z,12.20
2019-02-26T19:49:39.786Z,18.00
2019-02-26T19:52:08.865Z,14.60
2019-02-26T19:54:41.613Z,13.40
2019-02-26T19:57:12.303Z,14.20
2019-02-26T19:59:46.611Z,7.40
2019-02-26T20:02:13.510Z,16.80
2019-02-26T20:04:43.846Z,12.00
2019-02-26T20:07:13.311Z,15.00
2019-02-26T20:09:44.224Z,12.40
2019-02-26T20:12:16.867Z,16.40
2019-02-26T20:14:48.824Z,18.20
2019-02-26T20:17:18.340Z,15.00
2019-02-26T20:19:48.054Z,13.80
2019-02-26T20:22:19.336Z,15.60
2019-02-26T20:24:49.259Z,21.60
2019-02-26T20:27:21.678Z,16.60
2019-02-26T20:29:50.155Z,19.60
2019-02-26T20:32:21.671Z,11.20
2019-02-26T20:34:52.765Z,12.40
2019-02-26T20:37:24.462Z,15.60
2019-02-26T20:39:56.717Z,15.20
2019-02-26T20:42:26.745Z,14.80
2019-02-26T20:45:00.754Z,12.20
2019-02-26T20:47:31.625Z,12.20
2019-02-26T20:50:06.134Z,3.80
2019-02-26T20:52:38.095Z,9.60
2019-02-26T20:55:09.387Z,9.40
2019-02-26T20:57:40.407Z,9.00
2019-02-26T21:00:15.957Z,3.00
2019-02-26T21:02:45.724Z,7.80
2019-02-26T21:05:15.714Z,6.20
2019-02-26T21:07:46.139Z,7.00
2019-02-26T21:10:16.202Z,6.60
2019-02-26T21:12:46.802Z,4.00
2019-02-26T21:15:18.044Z,6.00
2019-02-26T21:17:48.091Z,7.00
2019-02-26T21:20:21.251Z,3.00
2019-02-26T21:22:54.662Z,6.00
2019-02-26T21:25:26.280Z,6.80
2019-02-26T21:27:56.259Z,6.20
2019-02-26T21:30:26.113Z,6.80
2019-02-26T21:32:58.070Z,7.00
2019-02-26T21:35:28.069Z,6.00
2019-02-26T21:37:58.149Z,7.00
2019-02-26T21:40:28.182Z,9.20
2019-02-26T21:43:01.600Z,4.80
2019-02-26T21:45:30.349Z,3.00
2019-02-26T21:48:02.490Z,7.40
2019-02-26T21:50:31.370Z,7.40
2019-02-26T21:53:01.741Z,6.60
2019-02-26T21:55:36.631Z,6.00
2019-02-26T21:58:02.989Z,6.20
2019-02-26T22:00:32.900Z,3.80
2019-02-26T22:03:06.562Z,5.80
2019-02-26T22:05:37.931Z,6.80
2019-02-26T22:08:08.308Z,3.40
2019-02-26T22:10:42.513Z,6.40
2019-02-26T22:13:10.469Z,6.00
2019-02-26T22:15:42.122Z,4.80
2019-02-26T22:18:12.501Z,4.80
2019-02-26T22:20:42.512Z,5.20
2019-02-26T22:23:12.440Z,7.60
2019-02-26T22:25:42.506Z,6.40
2019-02-26T22:28:12.771Z,7.00
2019-02-26T22:30:42.774Z,1.80
2019-02-26T22:33:12.601Z,6.00
2019-02-26T22:35:46.031Z,6.00
2019-02-26T22:38:16.112Z,6.00
2019-02-26T22:40:45.747Z,7.00
2019-02-26T22:43:16.183Z,3.00
2019-02-26T22:45:46.212Z,6.20
2019-02-26T22:48:16.235Z,5.60
2019-02-26T22:50:46.348Z,9.00
2019-02-26T22:53:16.002Z,9.20
2019-02-26T22:55:49.622Z,5.80
2019-02-26T22:58:17.059Z,8.60
2019-02-26T23:01:14.256Z,8.60
2019-02-26T23:03:46.045Z,7.00
2019-02-26T23:06:16.457Z,6.40
2019-02-26T23:08:46.052Z,7.00
2019-02-26T23:11:20.649Z,0.20
2019-02-26T23:13:53.427Z,7.40
2019-02-26T23:16:24.071Z,5.60
2019-02-26T23:18:53.881Z,6.60
2019-02-26T23:21:23.663Z,5.20
2019-02-26T23:23:55.430Z,7.80
2019-02-26T23:26:25.640Z,6.00
2019-02-26T23:28:58.916Z,4.40
2019-02-26T23:31:32.719Z,5.20
2019-02-26T23:34:00.340Z,6.00
2019-02-26T23:36:32.261Z,4.40
2019-02-26T23:39:02.394Z,6.40
2019-02-26T23:41:33.090Z,5.20
2019-02-26T23:44:03.663Z,6.40
2019-02-26T23:46:33.340Z,4.80
2019-02-26T23:49:03.486Z,3.00
2019-02-26T23:51:33.021Z,4.20
2019-02-26T23:54:04.670Z,4.00
2019-02-26T23:56:34.008Z,4.80
2019-02-26T23:59:04.270Z,3.20
